sensor_id;sensor_type;location;lat;lon;timestamp;P1;durP1;ratioP1;P2;durP2;ratioP2
70850;SDS011;58475;49.662;9.636;2023-05-19T00:00:42;5.82;;;2.33;;
70850;SDS011;58475;49.662;9.636;2023-05-19T00:03:09;9.43;;;3.05;;
70850;SDS011;58475;49.662;9.636;2023-05-19T00:05:37;6.15;;;2.58;;
70850;SDS011;58475;49.662;9.636;2023-05-19T00:08:09;4.90;;;2.53;;
70850;SDS011;58475;49.662;9.636;2023-05-19T00:10:35;7.03;;;2.60;;
70850;SDS011;58475;49.662;9.636;2023-05-19T00:13:01;5.97;;;2.88;;
70850;SDS011;58475;49.662;9.636;2023-05-19T00:15:27;4.82;;;2.40;;
70850;SDS011;58475;49.662;9.636;2023-05-19T00:17:52;5.50;;;2.53;;
70850;SDS011;58475;49.662;9.636;2023-05-19T00:20:19;4.72;;;2.40;;
70850;SDS011;58475;49.662;9.636;2023-05-19T00:22:45;5.00;;;2.55;;
70850;SDS011;58475;49.662;9.636;2023-05-19T00:25:11;4.50;;;2.30;;
70850;SDS011;58475;49.662;9.636;2023-05-19T00:27:36;5.10;;;2.58;;
70850;SDS011;58475;49.662;9.636;2023-05-19T00:30:02;6.63;;;2.60;;
70850;SDS011;58475;49.662;9.636;2023-05-19T00:32:27;5.70;;;2.30;;
70850;SDS011;58475;49.662;9.636;2023-05-19T00:34:53;6.72;;;2.85;;
70850;SDS011;58475;49.662;9.636;2023-05-19T00:37:18;5.90;;;2.60;;
70850;SDS011;58475;49.662;9.636;2023-05-19T00:39:44;5.40;;;2.40;;
70850;SDS011;58475;49.662;9.636;2023-05-19T00:42:09;6.53;;;2.70;;
70850;SDS011;58475;49.662;9.636;2023-05-19T00:44:39;4.88;;;2.60;;
70850;SDS011;58475;49.662;9.636;2023-05-19T00:47:05;4.97;;;2.70;;
70850;SDS011;58475;49.662;9.636;2023-05-19T00:49:31;5.90;;;2.70;;
70850;SDS011;58475;49.662;9.636;2023-05-19T00:51:57;5.80;;;2.63;;
70850;SDS011;58475;49.662;9.636;2023-05-19T00:54:25;4.28;;;2.17;;
70850;SDS011;58475;49.662;9.636;2023-05-19T00:56:50;6.07;;;2.60;;
70850;SDS011;58475;49.662;9.636;2023-05-19T00:59:16;6.53;;;2.53;;
70850;SDS011;58475;49.662;9.636;2023-05-19T01:01:41;6.43;;;2.70;;
70850;SDS011;58475;49.662;9.636;2023-05-19T01:04:07;6.38;;;2.90;;
70850;SDS011;58475;49.662;9.636;2023-05-19T01:06:34;5.65;;;2.65;;
70850;SDS011;58475;49.662;9.636;2023-05-19T01:09:02;6.35;;;2.60;;
70850;SDS011;58475;49.662;9.636;2023-05-19T01:11:28;5.80;;;2.40;;
70850;SDS011;58475;49.662;9.636;2023-05-19T01:13:53;5.45;;;2.83;;
70850;SDS011;58475;49.662;9.636;2023-05-19T01:16:24;5.75;;;2.40;;
70850;SDS011;58475;49.662;9.636;2023-05-19T01:19:16;5.15;;;2.78;;
70850;SDS011;58475;49.662;9.636;2023-05-19T01:28:04;8.05;;;2.53;;
70850;SDS011;58475;49.662;9.636;2023-05-19T01:33:03;5.93;;;2.60;;
70850;SDS011;58475;49.662;9.636;2023-05-19T01:35:31;6.70;;;2.50;;
70850;SDS011;58475;49.662;9.636;2023-05-19T01:38:00;6.10;;;2.55;;
70850;SDS011;58475;49.662;9.636;2023-05-19T01:40:27;6.05;;;2.42;;
70850;SDS011;58475;49.662;9.636;2023-05-19T01:42:56;5.05;;;2.60;;
70850;SDS011;58475;49.662;9.636;2023-05-19T01:45:24;6.45;;;2.45;;
70850;SDS011;58475;49.662;9.636;2023-05-19T01:47:55;6.10;;;2.50;;
70850;SDS011;58475;49.662;9.636;2023-05-19T01:50:22;5.43;;;2.90;;
70850;SDS011;58475;49.662;9.636;2023-05-19T01:52:48;6.40;;;2.83;;
70850;SDS011;58475;49.662;9.636;2023-05-19T01:55:13;5.72;;;2.70;;
70850;SDS011;58475;49.662;9.636;2023-05-19T01:58:04;5.57;;;2.72;;
70850;SDS011;58475;49.662;9.636;2023-05-19T02:00:43;5.72;;;3.00;;
70850;SDS011;58475;49.662;9.636;2023-05-19T02:03:25;5.53;;;2.78;;
70850;SDS011;58475;49.662;9.636;2023-05-19T02:08:56;6.95;;;2.92;;
70850;SDS011;58475;49.662;9.636;2023-05-19T02:11:35;7.07;;;3.20;;
70850;SDS011;58475;49.662;9.636;2023-05-19T02:14:05;5.65;;;2.72;;
70850;SDS011;58475;49.662;9.636;2023-05-19T02:16:37;5.93;;;3.00;;
70850;SDS011;58475;49.662;9.636;2023-05-19T02:19:03;7.07;;;2.78;;
70850;SDS011;58475;49.662;9.636;2023-05-19T02:21:29;5.68;;;2.60;;
70850;SDS011;58475;49.662;9.636;2023-05-19T02:23:55;6.80;;;2.92;;
70850;SDS011;58475;49.662;9.636;2023-05-19T02:26:20;6.15;;;2.78;;
70850;SDS011;58475;49.662;9.636;2023-05-19T02:28:45;5.88;;;2.70;;
70850;SDS011;58475;49.662;9.636;2023-05-19T02:31:11;5.90;;;2.50;;
70850;SDS011;58475;49.662;9.636;2023-05-19T02:33:36;7.43;;;2.72;;
70850;SDS011;58475;49.662;9.636;2023-05-19T02:36:01;7.65;;;2.72;;
70850;SDS011;58475;49.662;9.636;2023-05-19T02:38:27;6.65;;;2.85;;
70850;SDS011;58475;49.662;9.636;2023-05-19T02:40:52;6.70;;;2.95;;
70850;SDS011;58475;49.662;9.636;2023-05-19T02:43:18;6.10;;;2.80;;
70850;SDS011;58475;49.662;9.636;2023-05-19T02:45:44;5.38;;;2.80;;
70850;SDS011;58475;49.662;9.636;2023-05-19T02:48:09;5.10;;;2.63;;
70850;SDS011;58475;49.662;9.636;2023-05-19T02:50:34;9.27;;;2.67;;
70850;SDS011;58475;49.662;9.636;2023-05-19T02:53:00;5.35;;;2.53;;
70850;SDS011;58475;49.662;9.636;2023-05-19T02:55:26;5.85;;;3.00;;
70850;SDS011;58475;49.662;9.636;2023-05-19T02:57:52;6.13;;;2.65;;
70850;SDS011;58475;49.662;9.636;2023-05-19T03:00:17;7.30;;;2.60;;
70850;SDS011;58475;49.662;9.636;2023-05-19T03:02:43;5.68;;;2.70;;
70850;SDS011;58475;49.662;9.636;2023-05-19T03:05:09;7.05;;;2.95;;
70850;SDS011;58475;49.662;9.636;2023-05-19T03:07:34;5.45;;;2.90;;
70850;SDS011;58475;49.662;9.636;2023-05-19T03:10:00;5.00;;;2.58;;
70850;SDS011;58475;49.662;9.636;2023-05-19T03:12:28;6.13;;;2.80;;
70850;SDS011;58475;49.662;9.636;2023-05-19T03:14:54;6.28;;;2.78;;
70850;SDS011;58475;49.662;9.636;2023-05-19T03:17:19;5.53;;;2.90;;
70850;SDS011;58475;49.662;9.636;2023-05-19T03:19:44;5.45;;;2.90;;
70850;SDS011;58475;49.662;9.636;2023-05-19T03:22:10;5.63;;;2.95;;
70850;SDS011;58475;49.662;9.636;2023-05-19T03:24:35;6.70;;;2.85;;
70850;SDS011;58475;49.662;9.636;2023-05-19T03:27:01;6.57;;;2.85;;
70850;SDS011;58475;49.662;9.636;2023-05-19T03:29:29;7.53;;;3.05;;
70850;SDS011;58475;49.662;9.636;2023-05-19T03:31:55;5.30;;;3.03;;
70850;SDS011;58475;49.662;9.636;2023-05-19T03:34:21;6.47;;;2.60;;
70850;SDS011;58475;49.662;9.636;2023-05-19T03:36:46;5.20;;;2.83;;
70850;SDS011;58475;49.662;9.636;2023-05-19T03:39:14;5.50;;;2.72;;
70850;SDS011;58475;49.662;9.636;2023-05-19T03:41:40;6.13;;;3.10;;
70850;SDS011;58475;49.662;9.636;2023-05-19T03:44:05;7.28;;;2.88;;
70850;SDS011;58475;49.662;9.636;2023-05-19T03:46:31;7.93;;;2.90;;
70850;SDS011;58475;49.662;9.636;2023-05-19T03:49:19;7.68;;;3.15;;
70850;SDS011;58475;49.662;9.636;2023-05-19T03:52:03;6.47;;;2.80;;
70850;SDS011;58475;49.662;9.636;2023-05-19T03:54:34;5.35;;;3.00;;
70850;SDS011;58475;49.662;9.636;2023-05-19T03:57:00;9.13;;;3.38;;
70850;SDS011;58475;49.662;9.636;2023-05-19T03:59:26;9.27;;;3.38;;
70850;SDS011;58475;49.662;9.636;2023-05-19T04:01:51;5.70;;;3.00;;
70850;SDS011;58475;49.662;9.636;2023-05-19T04:04:17;5.40;;;2.92;;
70850;SDS011;58475;49.662;9.636;2023-05-19T04:06:44;6.65;;;2.80;;
70850;SDS011;58475;49.662;9.636;2023-05-19T04:09:10;5.10;;;2.60;;
70850;SDS011;58475;49.662;9.636;2023-05-19T04:11:37;6.40;;;2.75;;
70850;SDS011;58475;49.662;9.636;2023-05-19T04:14:04;5.82;;;2.78;;
70850;SDS011;58475;49.662;9.636;2023-05-19T04:16:30;7.07;;;2.90;;
70850;SDS011;58475;49.662;9.636;2023-05-19T04:18:55;5.22;;;2.42;;
70850;SDS011;58475;49.662;9.636;2023-05-19T04:21:20;5.60;;;2.70;;
70850;SDS011;58475;49.662;9.636;2023-05-19T04:23:46;7.03;;;3.08;;
70850;SDS011;58475;49.662;9.636;2023-05-19T04:26:12;5.10;;;2.78;;
70850;SDS011;58475;49.662;9.636;2023-05-19T04:28:39;4.90;;;2.72;;
70850;SDS011;58475;49.662;9.636;2023-05-19T04:31:06;7.28;;;2.60;;
70850;SDS011;58475;49.662;9.636;2023-05-19T04:33:38;8.15;;;2.92;;
70850;SDS011;58475;49.662;9.636;2023-05-19T04:36:04;7.05;;;2.67;;
70850;SDS011;58475;49.662;9.636;2023-05-19T04:38:33;5.15;;;2.78;;
70850;SDS011;58475;49.662;9.636;2023-05-19T04:40:59;5.07;;;2.60;;
70850;SDS011;58475;49.662;9.636;2023-05-19T04:43:26;5.70;;;2.95;;
70850;SDS011;58475;49.662;9.636;2023-05-19T04:45:53;5.25;;;2.88;;
70850;SDS011;58475;49.662;9.636;2023-05-19T04:48:20;5.60;;;2.83;;
70850;SDS011;58475;49.662;9.636;2023-05-19T04:50:49;4.63;;;2.65;;
70850;SDS011;58475;49.662;9.636;2023-05-19T04:53:16;6.72;;;2.90;;
70850;SDS011;58475;49.662;9.636;2023-05-19T04:55:42;4.78;;;2.53;;
70850;SDS011;58475;49.662;9.636;2023-05-19T04:58:08;6.35;;;2.75;;
70850;SDS011;58475;49.662;9.636;2023-05-19T05:00:33;6.57;;;3.35;;
70850;SDS011;58475;49.662;9.636;2023-05-19T05:03:05;7.68;;;3.08;;
70850;SDS011;58475;49.662;9.636;2023-05-19T05:05:31;4.95;;;2.80;;
70850;SDS011;58475;49.662;9.636;2023-05-19T05:07:57;4.78;;;2.83;;
70850;SDS011;58475;49.662;9.636;2023-05-19T05:10:25;5.70;;;2.80;;
70850;SDS011;58475;49.662;9.636;2023-05-19T05:12:52;6.65;;;2.90;;
70850;SDS011;58475;49.662;9.636;2023-05-19T05:15:18;6.30;;;3.17;;
70850;SDS011;58475;49.662;9.636;2023-05-19T05:17:47;5.35;;;2.85;;
70850;SDS011;58475;49.662;9.636;2023-05-19T05:20:13;7.13;;;2.72;;
70850;SDS011;58475;49.662;9.636;2023-05-19T05:22:39;5.35;;;2.58;;
70850;SDS011;58475;49.662;9.636;2023-05-19T05:25:07;5.65;;;2.92;;
70850;SDS011;58475;49.662;9.636;2023-05-19T05:27:33;6.70;;;3.20;;
70850;SDS011;58475;49.662;9.636;2023-05-19T05:30:03;5.82;;;3.40;;
70850;SDS011;58475;49.662;9.636;2023-05-19T05:32:29;6.03;;;2.95;;
70850;SDS011;58475;49.662;9.636;2023-05-19T05:34:55;7.50;;;3.20;;
70850;SDS011;58475;49.662;9.636;2023-05-19T05:37:20;7.85;;;3.20;;
70850;SDS011;58475;49.662;9.636;2023-05-19T05:39:46;5.82;;;2.97;;
70850;SDS011;58475;49.662;9.636;2023-05-19T05:42:12;5.57;;;2.80;;
70850;SDS011;58475;49.662;9.636;2023-05-19T05:44:38;7.03;;;3.15;;
70850;SDS011;58475;49.662;9.636;2023-05-19T05:47:05;7.15;;;2.97;;
70850;SDS011;58475;49.662;9.636;2023-05-19T05:49:31;6.45;;;3.00;;
70850;SDS011;58475;49.662;9.636;2023-05-19T05:51:57;6.30;;;3.00;;
70850;SDS011;58475;49.662;9.636;2023-05-19T05:54:23;6.30;;;3.00;;
70850;SDS011;58475;49.662;9.636;2023-05-19T05:56:51;5.82;;;2.97;;
70850;SDS011;58475;49.662;9.636;2023-05-19T05:59:17;6.80;;;2.92;;
70850;SDS011;58475;49.662;9.636;2023-05-19T06:01:44;7.05;;;2.83;;
70850;SDS011;58475;49.662;9.636;2023-05-19T06:04:10;5.60;;;3.03;;
70850;SDS011;58475;49.662;9.636;2023-05-19T06:06:35;7.60;;;2.97;;
70850;SDS011;58475;49.662;9.636;2023-05-19T06:09:02;5.55;;;2.90;;
70850;SDS011;58475;49.662;9.636;2023-05-19T06:11:28;4.57;;;2.65;;
70850;SDS011;58475;49.662;9.636;2023-05-19T06:13:55;4.50;;;2.80;;
70850;SDS011;58475;49.662;9.636;2023-05-19T06:16:40;7.75;;;3.05;;
70850;SDS011;58475;49.662;9.636;2023-05-19T06:19:06;5.82;;;2.90;;
70850;SDS011;58475;49.662;9.636;2023-05-19T06:21:32;6.22;;;2.80;;
70850;SDS011;58475;49.662;9.636;2023-05-19T06:23:57;8.10;;;3.08;;
70850;SDS011;58475;49.662;9.636;2023-05-19T06:26:22;9.07;;;2.72;;
70850;SDS011;58475;49.662;9.636;2023-05-19T06:28:48;7.00;;;3.17;;
70850;SDS011;58475;49.662;9.636;2023-05-19T06:31:13;10.00;;;2.95;;
70850;SDS011;58475;49.662;9.636;2023-05-19T06:33:47;6.72;;;2.67;;
70850;SDS011;58475;49.662;9.636;2023-05-19T06:36:13;6.43;;;2.50;;
70850;SDS011;58475;49.662;9.636;2023-05-19T06:38:41;5.45;;;2.50;;
70850;SDS011;58475;49.662;9.636;2023-05-19T06:41:06;7.40;;;2.47;;
70850;SDS011;58475;49.662;9.636;2023-05-19T06:43:32;6.25;;;2.72;;
70850;SDS011;58475;49.662;9.636;2023-05-19T06:46:01;9.52;;;2.60;;
70850;SDS011;58475;49.662;9.636;2023-05-19T06:48:28;6.60;;;2.30;;
70850;SDS011;58475;49.662;9.636;2023-05-19T06:50:53;5.35;;;2.22;;
70850;SDS011;58475;49.662;9.636;2023-05-19T06:53:19;5.93;;;2.28;;
70850;SDS011;58475;49.662;9.636;2023-05-19T06:55:45;7.28;;;2.03;;
70850;SDS011;58475;49.662;9.636;2023-05-19T06:58:13;7.18;;;2.25;;
70850;SDS011;58475;49.662;9.636;2023-05-19T07:00:38;5.60;;;2.33;;
70850;SDS011;58475;49.662;9.636;2023-05-19T07:03:06;6.15;;;2.38;;
70850;SDS011;58475;49.662;9.636;2023-05-19T07:05:32;6.57;;;2.40;;
70850;SDS011;58475;49.662;9.636;2023-05-19T07:07:59;8.10;;;2.60;;
70850;SDS011;58475;49.662;9.636;2023-05-19T07:10:27;5.32;;;2.38;;
70850;SDS011;58475;49.662;9.636;2023-05-19T07:12:53;6.45;;;2.40;;
70850;SDS011;58475;49.662;9.636;2023-05-19T07:15:21;5.50;;;2.38;;
70850;SDS011;58475;49.662;9.636;2023-05-19T07:17:46;5.15;;;2.22;;
70850;SDS011;58475;49.662;9.636;2023-05-19T07:20:12;6.28;;;2.55;;
70850;SDS011;58475;49.662;9.636;2023-05-19T07:22:38;9.20;;;2.40;;
70850;SDS011;58475;49.662;9.636;2023-05-19T07:25:05;7.38;;;2.50;;
70850;SDS011;58475;49.662;9.636;2023-05-19T07:27:31;7.88;;;2.53;;
70850;SDS011;58475;49.662;9.636;2023-05-19T07:29:57;7.35;;;2.65;;
70850;SDS011;58475;49.662;9.636;2023-05-19T07:32:23;7.15;;;2.55;;
70850;SDS011;58475;49.662;9.636;2023-05-19T07:34:49;7.47;;;2.83;;
70850;SDS011;58475;49.662;9.636;2023-05-19T07:37:14;7.65;;;2.90;;
70850;SDS011;58475;49.662;9.636;2023-05-19T07:39:40;8.02;;;2.75;;
70850;SDS011;58475;49.662;9.636;2023-05-19T07:42:06;7.18;;;2.72;;
70850;SDS011;58475;49.662;9.636;2023-05-19T07:44:31;7.00;;;2.50;;
70850;SDS011;58475;49.662;9.636;2023-05-19T07:46:56;7.95;;;2.42;;
70850;SDS011;58475;49.662;9.636;2023-05-19T07:49:22;7.68;;;2.22;;
70850;SDS011;58475;49.662;9.636;2023-05-19T07:51:47;7.53;;;2.40;;
70850;SDS011;58475;49.662;9.636;2023-05-19T07:54:13;7.35;;;2.55;;
70850;SDS011;58475;49.662;9.636;2023-05-19T07:56:38;8.07;;;2.63;;
70850;SDS011;58475;49.662;9.636;2023-05-19T07:59:04;8.32;;;2.67;;
70850;SDS011;58475;49.662;9.636;2023-05-19T08:01:29;8.10;;;2.60;;
70850;SDS011;58475;49.662;9.636;2023-05-19T08:03:56;9.68;;;2.78;;
70850;SDS011;58475;49.662;9.636;2023-05-19T08:06:21;9.57;;;2.83;;
70850;SDS011;58475;49.662;9.636;2023-05-19T08:08:47;6.07;;;2.60;;
70850;SDS011;58475;49.662;9.636;2023-05-19T08:11:12;6.75;;;2.50;;
70850;SDS011;58475;49.662;9.636;2023-05-19T08:13:37;6.68;;;2.42;;
70850;SDS011;58475;49.662;9.636;2023-05-19T08:16:03;6.72;;;2.55;;
70850;SDS011;58475;49.662;9.636;2023-05-19T08:18:29;6.38;;;2.40;;
70850;SDS011;58475;49.662;9.636;2023-05-19T08:20:54;9.02;;;3.00;;
70850;SDS011;58475;49.662;9.636;2023-05-19T08:23:20;7.68;;;2.42;;
70850;SDS011;58475;49.662;9.636;2023-05-19T08:25:46;8.35;;;2.90;;
70850;SDS011;58475;49.662;9.636;2023-05-19T08:28:11;7.68;;;2.60;;
70850;SDS011;58475;49.662;9.636;2023-05-19T08:30:37;7.13;;;2.50;;
70850;SDS011;58475;49.662;9.636;2023-05-19T08:33:02;8.48;;;2.70;;
70850;SDS011;58475;49.662;9.636;2023-05-19T08:35:28;7.80;;;2.55;;
70850;SDS011;58475;49.662;9.636;2023-05-19T08:37:53;8.10;;;2.70;;
70850;SDS011;58475;49.662;9.636;2023-05-19T08:40:19;6.97;;;2.50;;
70850;SDS011;58475;49.662;9.636;2023-05-19T08:42:44;7.43;;;2.50;;
70850;SDS011;58475;49.662;9.636;2023-05-19T08:45:10;8.60;;;2.90;;
70850;SDS011;58475;49.662;9.636;2023-05-19T08:47:36;8.63;;;2.80;;
70850;SDS011;58475;49.662;9.636;2023-05-19T08:50:05;6.90;;;2.63;;
70850;SDS011;58475;49.662;9.636;2023-05-19T08:55:24;6.32;;;2.60;;
70850;SDS011;58475;49.662;9.636;2023-05-19T08:57:57;9.90;;;2.60;;
70850;SDS011;58475;49.662;9.636;2023-05-19T09:00:27;6.82;;;2.60;;
70850;SDS011;58475;49.662;9.636;2023-05-19T09:02:55;5.57;;;2.53;;
70850;SDS011;58475;49.662;9.636;2023-05-19T09:05:20;7.78;;;2.60;;
70850;SDS011;58475;49.662;9.636;2023-05-19T09:07:47;8.43;;;2.83;;
70850;SDS011;58475;49.662;9.636;2023-05-19T09:10:12;8.68;;;2.80;;
70850;SDS011;58475;49.662;9.636;2023-05-19T09:12:40;8.25;;;2.80;;
70850;SDS011;58475;49.662;9.636;2023-05-19T09:15:09;7.47;;;2.60;;
70850;SDS011;58475;49.662;9.636;2023-05-19T09:17:35;8.65;;;2.80;;
70850;SDS011;58475;49.662;9.636;2023-05-19T09:20:01;5.88;;;2.55;;
70850;SDS011;58475;49.662;9.636;2023-05-19T09:22:29;8.85;;;2.72;;
70850;SDS011;58475;49.662;9.636;2023-05-19T09:24:55;8.02;;;2.50;;
70850;SDS011;58475;49.662;9.636;2023-05-19T09:27:20;8.27;;;2.88;;
70850;SDS011;58475;49.662;9.636;2023-05-19T09:29:47;6.90;;;2.70;;
70850;SDS011;58475;49.662;9.636;2023-05-19T09:32:23;9.43;;;3.00;;
70850;SDS011;58475;49.662;9.636;2023-05-19T09:34:49;7.97;;;2.75;;
70850;SDS011;58475;49.662;9.636;2023-05-19T09:37:15;9.18;;;2.60;;
70850;SDS011;58475;49.662;9.636;2023-05-19T09:39:40;8.30;;;3.20;;
70850;SDS011;58475;49.662;9.636;2023-05-19T09:42:13;6.95;;;2.42;;
70850;SDS011;58475;49.662;9.636;2023-05-19T09:44:38;8.15;;;2.70;;
70850;SDS011;58475;49.662;9.636;2023-05-19T09:47:05;6.90;;;2.55;;
70850;SDS011;58475;49.662;9.636;2023-05-19T09:49:33;7.72;;;2.78;;
70850;SDS011;58475;49.662;9.636;2023-05-19T09:52:01;5.28;;;2.55;;
70850;SDS011;58475;49.662;9.636;2023-05-19T09:54:27;7.60;;;2.50;;
70850;SDS011;58475;49.662;9.636;2023-05-19T09:59:25;7.43;;;2.85;;
70850;SDS011;58475;49.662;9.636;2023-05-19T10:01:56;8.48;;;2.75;;
70850;SDS011;58475;49.662;9.636;2023-05-19T10:04:23;7.57;;;2.83;;
70850;SDS011;58475;49.662;9.636;2023-05-19T10:06:51;8.45;;;2.55;;
70850;SDS011;58475;49.662;9.636;2023-05-19T10:09:21;9.20;;;2.78;;
70850;SDS011;58475;49.662;9.636;2023-05-19T10:11:50;7.15;;;3.05;;
70850;SDS011;58475;49.662;9.636;2023-05-19T10:14:17;8.27;;;2.72;;
70850;SDS011;58475;49.662;9.636;2023-05-19T10:16:53;6.68;;;2.58;;
70850;SDS011;58475;49.662;9.636;2023-05-19T10:19:21;7.15;;;2.47;;
70850;SDS011;58475;49.662;9.636;2023-05-19T10:21:48;8.70;;;3.03;;
70850;SDS011;58475;49.662;9.636;2023-05-19T10:24:13;6.43;;;2.63;;
70850;SDS011;58475;49.662;9.636;2023-05-19T10:26:39;7.03;;;2.50;;
70850;SDS011;58475;49.662;9.636;2023-05-19T10:29:09;6.03;;;2.60;;
70850;SDS011;58475;49.662;9.636;2023-05-19T10:31:36;6.10;;;2.63;;
70850;SDS011;58475;49.662;9.636;2023-05-19T10:34:11;7.40;;;2.60;;
70850;SDS011;58475;49.662;9.636;2023-05-19T10:36:58;6.40;;;2.53;;
70850;SDS011;58475;49.662;9.636;2023-05-19T10:39:36;9.88;;;2.60;;
70850;SDS011;58475;49.662;9.636;2023-05-19T10:42:09;7.20;;;2.80;;
70850;SDS011;58475;49.662;9.636;2023-05-19T10:44:56;6.22;;;2.55;;
70850;SDS011;58475;49.662;9.636;2023-05-19T10:47:27;8.68;;;2.70;;
70850;SDS011;58475;49.662;9.636;2023-05-19T10:49:53;6.35;;;2.58;;
70850;SDS011;58475;49.662;9.636;2023-05-19T10:52:20;6.75;;;2.47;;
70850;SDS011;58475;49.662;9.636;2023-05-19T10:54:47;7.07;;;2.80;;
70850;SDS011;58475;49.662;9.636;2023-05-19T10:57:16;6.75;;;2.50;;
70850;SDS011;58475;49.662;9.636;2023-05-19T10:59:42;6.72;;;2.67;;
70850;SDS011;58475;49.662;9.636;2023-05-19T11:02:08;7.85;;;2.50;;
70850;SDS011;58475;49.662;9.636;2023-05-19T11:07:22;5.53;;;2.45;;
70850;SDS011;58475;49.662;9.636;2023-05-19T11:09:49;6.20;;;2.42;;
70850;SDS011;58475;49.662;9.636;2023-05-19T11:12:19;7.53;;;2.83;;
70850;SDS011;58475;49.662;9.636;2023-05-19T11:14:46;5.45;;;2.60;;
70850;SDS011;58475;49.662;9.636;2023-05-19T11:17:13;6.13;;;2.65;;
70850;SDS011;58475;49.662;9.636;2023-05-19T11:19:39;5.75;;;2.45;;
70850;SDS011;58475;49.662;9.636;2023-05-19T11:22:17;6.20;;;2.47;;
70850;SDS011;58475;49.662;9.636;2023-05-19T11:24:43;7.22;;;2.63;;
70850;SDS011;58475;49.662;9.636;2023-05-19T11:27:18;5.53;;;2.33;;
70850;SDS011;58475;49.662;9.636;2023-05-19T11:29:43;11.00;;;3.08;;
70850;SDS011;58475;49.662;9.636;2023-05-19T11:32:09;6.60;;;2.35;;
70850;SDS011;58475;49.662;9.636;2023-05-19T11:34:35;6.32;;;2.85;;
70850;SDS011;58475;49.662;9.636;2023-05-19T11:37:02;7.03;;;2.33;;
70850;SDS011;58475;49.662;9.636;2023-05-19T11:39:28;7.20;;;2.70;;
70850;SDS011;58475;49.662;9.636;2023-05-19T11:41:55;5.68;;;2.50;;
70850;SDS011;58475;49.662;9.636;2023-05-19T11:44:21;7.43;;;2.65;;
70850;SDS011;58475;49.662;9.636;2023-05-19T11:46:46;5.88;;;2.28;;
70850;SDS011;58475;49.662;9.636;2023-05-19T11:49:11;6.80;;;2.45;;
70850;SDS011;58475;49.662;9.636;2023-05-19T11:51:37;5.63;;;2.15;;
70850;SDS011;58475;49.662;9.636;2023-05-19T11:54:03;7.38;;;2.42;;
70850;SDS011;58475;49.662;9.636;2023-05-19T11:56:38;5.63;;;2.30;;
70850;SDS011;58475;49.662;9.636;2023-05-19T11:59:04;5.63;;;2.40;;
70850;SDS011;58475;49.662;9.636;2023-05-19T12:01:30;6.30;;;2.30;;
70850;SDS011;58475;49.662;9.636;2023-05-19T12:03:56;5.82;;;2.10;;
70850;SDS011;58475;49.662;9.636;2023-05-19T12:06:21;5.65;;;2.20;;
70850;SDS011;58475;49.662;9.636;2023-05-19T12:08:49;4.95;;;2.10;;
70850;SDS011;58475;49.662;9.636;2023-05-19T12:11:15;5.95;;;2.47;;
70850;SDS011;58475;49.662;9.636;2023-05-19T12:13:41;6.82;;;2.28;;
70850;SDS011;58475;49.662;9.636;2023-05-19T12:16:07;4.28;;;2.13;;
70850;SDS011;58475;49.662;9.636;2023-05-19T12:18:35;5.80;;;2.13;;
70850;SDS011;58475;49.662;9.636;2023-05-19T12:21:01;6.18;;;1.98;;
70850;SDS011;58475;49.662;9.636;2023-05-19T12:23:30;5.40;;;2.00;;
70850;SDS011;58475;49.662;9.636;2023-05-19T12:25:57;5.47;;;2.38;;
70850;SDS011;58475;49.662;9.636;2023-05-19T12:28:23;7.00;;;2.28;;
70850;SDS011;58475;49.662;9.636;2023-05-19T12:30:49;5.05;;;2.30;;
70850;SDS011;58475;49.662;9.636;2023-05-19T12:33:19;6.95;;;2.10;;
70850;SDS011;58475;49.662;9.636;2023-05-19T12:35:46;4.78;;;2.30;;
70850;SDS011;58475;49.662;9.636;2023-05-19T12:38:14;4.15;;;2.08;;
70850;SDS011;58475;49.662;9.636;2023-05-19T12:40:40;6.68;;;2.50;;
70850;SDS011;58475;49.662;9.636;2023-05-19T12:43:06;5.25;;;2.20;;
70850;SDS011;58475;49.662;9.636;2023-05-19T12:45:36;6.28;;;2.35;;
70850;SDS011;58475;49.662;9.636;2023-05-19T12:48:04;5.03;;;2.28;;
70850;SDS011;58475;49.662;9.636;2023-05-19T12:50:35;5.05;;;2.47;;
70850;SDS011;58475;49.662;9.636;2023-05-19T12:53:01;5.18;;;2.20;;
70850;SDS011;58475;49.662;9.636;2023-05-19T12:55:26;6.13;;;2.63;;
70850;SDS011;58475;49.662;9.636;2023-05-19T12:57:52;8.20;;;2.45;;
70850;SDS011;58475;49.662;9.636;2023-05-19T13:00:24;6.15;;;2.22;;
70850;SDS011;58475;49.662;9.636;2023-05-19T13:05:33;6.30;;;2.05;;
70850;SDS011;58475;49.662;9.636;2023-05-19T13:08:03;5.20;;;2.20;;
70850;SDS011;58475;49.662;9.636;2023-05-19T13:10:30;5.55;;;2.50;;
70850;SDS011;58475;49.662;9.636;2023-05-19T13:12:56;4.60;;;2.10;;
70850;SDS011;58475;49.662;9.636;2023-05-19T13:15:23;5.65;;;2.30;;
70850;SDS011;58475;49.662;9.636;2023-05-19T13:17:53;6.40;;;2.20;;
70850;SDS011;58475;49.662;9.636;2023-05-19T13:20:19;4.40;;;2.10;;
70850;SDS011;58475;49.662;9.636;2023-05-19T13:22:52;6.10;;;2.30;;
70850;SDS011;58475;49.662;9.636;2023-05-19T13:25:17;6.80;;;2.70;;
70850;SDS011;58475;49.662;9.636;2023-05-19T13:27:43;4.55;;;2.17;;
70850;SDS011;58475;49.662;9.636;2023-05-19T13:30:12;5.13;;;2.17;;
70850;SDS011;58475;49.662;9.636;2023-05-19T13:32:39;4.47;;;2.20;;
70850;SDS011;58475;49.662;9.636;2023-05-19T13:35:05;5.00;;;2.00;;
70850;SDS011;58475;49.662;9.636;2023-05-19T13:37:30;4.55;;;2.00;;
70850;SDS011;58475;49.662;9.636;2023-05-19T13:39:56;4.60;;;2.13;;
70850;SDS011;58475;49.662;9.636;2023-05-19T13:42:22;3.90;;;2.15;;
70850;SDS011;58475;49.662;9.636;2023-05-19T13:44:47;4.22;;;2.22;;
70850;SDS011;58475;49.662;9.636;2023-05-19T13:47:13;4.82;;;2.17;;
70850;SDS011;58475;49.662;9.636;2023-05-19T13:49:38;4.78;;;2.10;;
70850;SDS011;58475;49.662;9.636;2023-05-19T13:52:05;3.85;;;1.90;;
70850;SDS011;58475;49.662;9.636;2023-05-19T13:54:31;6.45;;;2.33;;
70850;SDS011;58475;49.662;9.636;2023-05-19T13:56:57;3.90;;;1.90;;
70850;SDS011;58475;49.662;9.636;2023-05-19T13:59:24;4.18;;;1.90;;
70850;SDS011;58475;49.662;9.636;2023-05-19T14:01:49;4.43;;;1.85;;
70850;SDS011;58475;49.662;9.636;2023-05-19T14:04:16;4.70;;;2.00;;
70850;SDS011;58475;49.662;9.636;2023-05-19T14:06:42;5.22;;;2.08;;
70850;SDS011;58475;49.662;9.636;2023-05-19T14:09:08;4.18;;;1.88;;
70850;SDS011;58475;49.662;9.636;2023-05-19T14:11:33;4.65;;;1.90;;
70850;SDS011;58475;49.662;9.636;2023-05-19T14:13:58;6.18;;;2.22;;
70850;SDS011;58475;49.662;9.636;2023-05-19T14:16:24;5.00;;;2.00;;
70850;SDS011;58475;49.662;9.636;2023-05-19T14:18:50;5.07;;;2.47;;
70850;SDS011;58475;49.662;9.636;2023-05-19T14:21:16;6.60;;;2.10;;
70850;SDS011;58475;49.662;9.636;2023-05-19T14:23:41;8.02;;;2.20;;
70850;SDS011;58475;49.662;9.636;2023-05-19T14:26:06;4.38;;;2.22;;
70850;SDS011;58475;49.662;9.636;2023-05-19T14:28:32;4.25;;;1.95;;
70850;SDS011;58475;49.662;9.636;2023-05-19T14:30:57;4.38;;;2.10;;
70850;SDS011;58475;49.662;9.636;2023-05-19T14:33:22;5.32;;;1.88;;
70850;SDS011;58475;49.662;9.636;2023-05-19T14:35:48;7.07;;;2.17;;
70850;SDS011;58475;49.662;9.636;2023-05-19T14:38:13;5.18;;;2.45;;
70850;SDS011;58475;49.662;9.636;2023-05-19T14:40:39;4.80;;;2.30;;
70850;SDS011;58475;49.662;9.636;2023-05-19T14:43:08;7.25;;;2.40;;
70850;SDS011;58475;49.662;9.636;2023-05-19T14:45:34;6.28;;;2.30;;
70850;SDS011;58475;49.662;9.636;2023-05-19T14:47:59;4.57;;;2.15;;
70850;SDS011;58475;49.662;9.636;2023-05-19T14:50:26;5.47;;;2.40;;
70850;SDS011;58475;49.662;9.636;2023-05-19T14:52:52;4.97;;;2.30;;
70850;SDS011;58475;49.662;9.636;2023-05-19T14:55:17;5.28;;;2.13;;
70850;SDS011;58475;49.662;9.636;2023-05-19T14:57:43;6.45;;;2.50;;
70850;SDS011;58475;49.662;9.636;2023-05-19T15:00:08;4.57;;;2.35;;
70850;SDS011;58475;49.662;9.636;2023-05-19T15:02:34;5.43;;;2.28;;
70850;SDS011;58475;49.662;9.636;2023-05-19T15:05:00;7.18;;;2.70;;
70850;SDS011;58475;49.662;9.636;2023-05-19T15:07:26;7.00;;;2.55;;
70850;SDS011;58475;49.662;9.636;2023-05-19T15:09:51;7.20;;;2.60;;